Pagrindinis puslapis
METAR-TAF:

METAR-TAF

Oro uostai :

Sand Point, Aliaska, Jungtinės Amerikos Valstijos

platuma: 55-19N, ilguma: 160-31W, Aukštis: 7 m

Dabartinis oras

Ataskaita buvo paskelbta 47 minutes, ne 04:56 UTC
Ramus vėjas
Temperatūra -1°C
Drėgmė 86%
Slėgis 1011 hPa
Matomumas: 16.1 km
Mažai debesys ne aukštis 1800 ft
Su prošvaistėmis ne aukštis 2600 ft
Su prošvaistėmis ne aukštis 4300 ft

METAR: PASD 280456Z 00000KT 10SM FEW018 BKN026 BKN043 M01/M03 A2985 RMK AO2 SLP111 LAST T10111033

Laikas: 20:43 (05:43 UTC)

Prognozė

Ataskaita buvo paskelbta 6 valandos ir 5 minutes, ne 23:38 UTC
Prognozė galioja nuo 28 metu 00 UTC su 28 metu 24 UTC
Vėjas 6 kt nuo kintamojo kryptimis
Matomumas: 10 km
Išsisklaidę debesys ne aukštis 2500 ft
Su prošvaistėmis ne aukštis 4000 ft
Laikinai
nuo 28 metu 00 UTC su 28 metu 04 UTC
Su prošvaistėmis ne aukštis 2500 ft

TAF: PASD 272338Z 2800/2824 VRB06KT P6SM SCT025 BKN040 TEMPO 2800/2804 BKN025 AMD LTD TO CLD VIS AND WIND

Orai ataskaitas ir orų prognozės (METAR, TAF).

turimą stotys yra geltonos ir raudonos taškus žemėlapyje.

Perkelti pele per norėdami pamatyti stoties vardą.

Tada spustelėkite, norėdami matyti oro stebėjimo ir prognozės.

Norėdami pakeisti žemėlapį: spustelėkite ant žalios mygtukų su juodo kryžiaus žemyn,; žalią mygtuką su brūkšneliu, jei norite nutolinti; arba žalių rodyklių gretimoms žemėlapius.


METAR-TAF: